sensor_id;sensor_type;location;lat;lon;timestamp;P1;durP1;ratioP1;P2;durP2;ratioP2
16113;SDS011;8161;-33.910;151.156;2022-07-18T00:00:07;0.80;;;0.30;;
16113;SDS011;8161;-33.910;151.156;2022-07-18T00:02:36;1.52;;;0.40;;
16113;SDS011;8161;-33.910;151.156;2022-07-18T00:05:03;0.70;;;0.30;;
16113;SDS011;8161;-33.910;151.156;2022-07-18T00:07:31;0.85;;;0.30;;
16113;SDS011;8161;-33.910;151.156;2022-07-18T00:09:59;3.75;;;0.50;;
16113;SDS011;8161;-33.910;151.156;2022-07-18T00:12:26;0.95;;;0.45;;
16113;SDS011;8161;-33.910;151.156;2022-07-18T00:14:53;2.60;;;0.40;;
16113;SDS011;8161;-33.910;151.156;2022-07-18T00:17:21;2.97;;;0.57;;
16113;SDS011;8161;-33.910;151.156;2022-07-18T00:19:48;0.93;;;0.30;;
16113;SDS011;8161;-33.910;151.156;2022-07-18T00:22:15;0.82;;;0.30;;
16113;SDS011;8161;-33.910;151.156;2022-07-18T00:24:42;1.02;;;0.25;;
16113;SDS011;8161;-33.910;151.156;2022-07-18T00:27:10;2.38;;;0.55;;
16113;SDS011;8161;-33.910;151.156;2022-07-18T00:29:37;2.97;;;0.47;;
16113;SDS011;8161;-33.910;151.156;2022-07-18T00:32:05;1.17;;;0.50;;
16113;SDS011;8161;-33.910;151.156;2022-07-18T00:34:33;1.85;;;0.50;;
16113;SDS011;8161;-33.910;151.156;2022-07-18T00:37:01;2.60;;;0.93;;
16113;SDS011;8161;-33.910;151.156;2022-07-18T00:39:29;0.38;;;0.30;;
16113;SDS011;8161;-33.910;151.156;2022-07-18T00:41:56;0.98;;;0.43;;
16113;SDS011;8161;-33.910;151.156;2022-07-18T00:44:25;1.40;;;0.50;;
16113;SDS011;8161;-33.910;151.156;2022-07-18T00:46:58;3.17;;;0.50;;
16113;SDS011;8161;-33.910;151.156;2022-07-18T00:49:26;3.38;;;0.85;;
16113;SDS011;8161;-33.910;151.156;2022-07-18T00:51:55;0.75;;;0.40;;
16113;SDS011;8161;-33.910;151.156;2022-07-18T00:54:22;1.02;;;0.40;;
16113;SDS011;8161;-33.910;151.156;2022-07-18T00:56:50;1.00;;;0.30;;
16113;SDS011;8161;-33.910;151.156;2022-07-18T00:59:17;0.75;;;0.20;;
16113;SDS011;8161;-33.910;151.156;2022-07-18T01:01:45;1.02;;;0.50;;
16113;SDS011;8161;-33.910;151.156;2022-07-18T01:04:17;0.82;;;0.35;;
16113;SDS011;8161;-33.910;151.156;2022-07-18T01:06:47;2.72;;;0.40;;
16113;SDS011;8161;-33.910;151.156;2022-07-18T01:09:16;0.60;;;0.30;;
16113;SDS011;8161;-33.910;151.156;2022-07-18T01:11:45;0.75;;;0.15;;
16113;SDS011;8161;-33.910;151.156;2022-07-18T01:14:13;2.75;;;0.43;;
16113;SDS011;8161;-33.910;151.156;2022-07-18T01:16:41;4.40;;;0.40;;
16113;SDS011;8161;-33.910;151.156;2022-07-18T01:19:09;1.92;;;0.30;;
16113;SDS011;8161;-33.910;151.156;2022-07-18T01:21:37;1.05;;;0.30;;
16113;SDS011;8161;-33.910;151.156;2022-07-18T01:24:05;0.20;;;0.20;;
16113;SDS011;8161;-33.910;151.156;2022-07-18T01:26:32;2.63;;;0.30;;
16113;SDS011;8161;-33.910;151.156;2022-07-18T01:29:02;0.75;;;0.30;;
16113;SDS011;8161;-33.910;151.156;2022-07-18T01:31:29;0.35;;;0.20;;
16113;SDS011;8161;-33.910;151.156;2022-07-18T01:33:59;1.17;;;0.45;;
16113;SDS011;8161;-33.910;151.156;2022-07-18T01:36:26;3.47;;;0.47;;
16113;SDS011;8161;-33.910;151.156;2022-07-18T01:38:54;1.27;;;0.40;;
16113;SDS011;8161;-33.910;151.156;2022-07-18T01:41:21;0.43;;;0.20;;
16113;SDS011;8161;-33.910;151.156;2022-07-18T01:43:49;0.88;;;0.40;;
16113;SDS011;8161;-33.910;151.156;2022-07-18T01:46:16;1.30;;;0.88;;
16113;SDS011;8161;-33.910;151.156;2022-07-18T01:48:44;0.52;;;0.30;;
16113;SDS011;8161;-33.910;151.156;2022-07-18T01:51:11;0.65;;;0.40;;
16113;SDS011;8161;-33.910;151.156;2022-07-18T01:53:39;0.32;;;0.20;;
16113;SDS011;8161;-33.910;151.156;2022-07-18T01:56:07;0.93;;;0.35;;
16113;SDS011;8161;-33.910;151.156;2022-07-18T01:58:37;2.05;;;0.30;;
16113;SDS011;8161;-33.910;151.156;2022-07-18T02:01:04;0.30;;;0.20;;
16113;SDS011;8161;-33.910;151.156;2022-07-18T02:03:32;0.35;;;0.25;;
16113;SDS011;8161;-33.910;151.156;2022-07-18T02:05:59;1.27;;;0.40;;
16113;SDS011;8161;-33.910;151.156;2022-07-18T02:08:26;2.63;;;0.20;;
16113;SDS011;8161;-33.910;151.156;2022-07-18T02:10:53;0.47;;;0.30;;
16113;SDS011;8161;-33.910;151.156;2022-07-18T02:13:21;0.50;;;0.20;;
16113;SDS011;8161;-33.910;151.156;2022-07-18T02:15:48;0.20;;;0.20;;
16113;SDS011;8161;-33.910;151.156;2022-07-18T02:18:16;0.85;;;0.30;;
16113;SDS011;8161;-33.910;151.156;2022-07-18T02:20:43;2.20;;;0.30;;
16113;SDS011;8161;-33.910;151.156;2022-07-18T02:23:11;0.82;;;0.20;;
16113;SDS011;8161;-33.910;151.156;2022-07-18T02:25:38;1.33;;;0.40;;
16113;SDS011;8161;-33.910;151.156;2022-07-18T02:28:05;0.63;;;0.45;;
16113;SDS011;8161;-33.910;151.156;2022-07-18T02:30:33;0.70;;;0.38;;
16113;SDS011;8161;-33.910;151.156;2022-07-18T02:33:00;1.13;;;0.47;;
16113;SDS011;8161;-33.910;151.156;2022-07-18T02:35:27;1.08;;;0.30;;
16113;SDS011;8161;-33.910;151.156;2022-07-18T02:37:55;0.30;;;0.30;;
16113;SDS011;8161;-33.910;151.156;2022-07-18T02:40:22;0.35;;;0.30;;
16113;SDS011;8161;-33.910;151.156;2022-07-18T02:42:49;1.05;;;0.30;;
16113;SDS011;8161;-33.910;151.156;2022-07-18T02:45:17;1.13;;;0.30;;
16113;SDS011;8161;-33.910;151.156;2022-07-18T02:47:44;0.65;;;0.30;;
16113;SDS011;8161;-33.910;151.156;2022-07-18T02:50:12;1.17;;;0.80;;
16113;SDS011;8161;-33.910;151.156;2022-07-18T02:52:42;0.38;;;0.38;;
16113;SDS011;8161;-33.910;151.156;2022-07-18T02:55:10;0.82;;;0.40;;
16113;SDS011;8161;-33.910;151.156;2022-07-18T02:57:39;1.95;;;0.47;;
16113;SDS011;8161;-33.910;151.156;2022-07-18T03:00:07;0.68;;;0.35;;
16113;SDS011;8161;-33.910;151.156;2022-07-18T03:02:38;0.65;;;0.32;;
16113;SDS011;8161;-33.910;151.156;2022-07-18T03:05:06;1.55;;;0.50;;
16113;SDS011;8161;-33.910;151.156;2022-07-18T03:07:33;1.40;;;0.80;;
16113;SDS011;8161;-33.910;151.156;2022-07-18T03:10:01;1.17;;;0.40;;
16113;SDS011;8161;-33.910;151.156;2022-07-18T03:12:30;2.05;;;0.45;;
16113;SDS011;8161;-33.910;151.156;2022-07-18T03:14:57;1.67;;;0.52;;
16113;SDS011;8161;-33.910;151.156;2022-07-18T03:17:25;1.15;;;0.40;;
16113;SDS011;8161;-33.910;151.156;2022-07-18T03:19:52;1.85;;;0.77;;
16113;SDS011;8161;-33.910;151.156;2022-07-18T03:22:19;1.55;;;0.43;;
16113;SDS011;8161;-33.910;151.156;2022-07-18T03:24:46;2.03;;;0.40;;
16113;SDS011;8161;-33.910;151.156;2022-07-18T03:27:14;2.35;;;0.40;;
16113;SDS011;8161;-33.910;151.156;2022-07-18T03:29:41;1.17;;;0.50;;
16113;SDS011;8161;-33.910;151.156;2022-07-18T03:32:08;2.05;;;0.60;;
16113;SDS011;8161;-33.910;151.156;2022-07-18T03:34:36;2.35;;;0.43;;
16113;SDS011;8161;-33.910;151.156;2022-07-18T03:37:03;1.02;;;0.50;;
16113;SDS011;8161;-33.910;151.156;2022-07-18T03:39:30;4.75;;;0.60;;
16113;SDS011;8161;-33.910;151.156;2022-07-18T03:41:57;1.38;;;0.40;;
16113;SDS011;8161;-33.910;151.156;2022-07-18T03:44:24;1.83;;;0.40;;
16113;SDS011;8161;-33.910;151.156;2022-07-18T03:46:52;2.38;;;0.50;;
16113;SDS011;8161;-33.910;151.156;2022-07-18T03:49:19;1.20;;;0.30;;
16113;SDS011;8161;-33.910;151.156;2022-07-18T03:51:47;1.33;;;0.82;;
16113;SDS011;8161;-33.910;151.156;2022-07-18T03:54:14;3.90;;;0.70;;
16113;SDS011;8161;-33.910;151.156;2022-07-18T03:56:41;2.33;;;0.65;;
16113;SDS011;8161;-33.910;151.156;2022-07-18T03:59:08;2.58;;;0.55;;
16113;SDS011;8161;-33.910;151.156;2022-07-18T04:01:36;1.23;;;0.50;;
16113;SDS011;8161;-33.910;151.156;2022-07-18T04:04:03;2.20;;;0.30;;
16113;SDS011;8161;-33.910;151.156;2022-07-18T04:06:30;2.13;;;0.43;;
16113;SDS011;8161;-33.910;151.156;2022-07-18T04:08:58;1.65;;;0.50;;
16113;SDS011;8161;-33.910;151.156;2022-07-18T04:11:26;1.33;;;0.40;;
16113;SDS011;8161;-33.910;151.156;2022-07-18T04:13:53;2.35;;;0.57;;
16113;SDS011;8161;-33.910;151.156;2022-07-18T04:16:21;2.15;;;0.50;;
16113;SDS011;8161;-33.910;151.156;2022-07-18T04:18:49;0.80;;;0.40;;
16113;SDS011;8161;-33.910;151.156;2022-07-18T04:21:16;1.67;;;0.60;;
16113;SDS011;8161;-33.910;151.156;2022-07-18T04:23:47;2.13;;;0.50;;
16113;SDS011;8161;-33.910;151.156;2022-07-18T04:26:14;1.77;;;0.30;;
16113;SDS011;8161;-33.910;151.156;2022-07-18T04:28:42;1.30;;;0.40;;
16113;SDS011;8161;-33.910;151.156;2022-07-18T04:31:09;3.85;;;0.50;;
16113;SDS011;8161;-33.910;151.156;2022-07-18T04:33:36;2.72;;;0.50;;
16113;SDS011;8161;-33.910;151.156;2022-07-18T04:36:03;1.67;;;0.55;;
16113;SDS011;8161;-33.910;151.156;2022-07-18T04:38:31;1.08;;;0.50;;
16113;SDS011;8161;-33.910;151.156;2022-07-18T04:41:03;1.98;;;0.50;;
16113;SDS011;8161;-33.910;151.156;2022-07-18T04:43:31;1.60;;;0.43;;
16113;SDS011;8161;-33.910;151.156;2022-07-18T04:45:58;1.63;;;0.40;;
16113;SDS011;8161;-33.910;151.156;2022-07-18T04:48:25;1.45;;;0.60;;
16113;SDS011;8161;-33.910;151.156;2022-07-18T04:50:53;2.85;;;0.75;;
16113;SDS011;8161;-33.910;151.156;2022-07-18T04:53:20;2.38;;;0.70;;
16113;SDS011;8161;-33.910;151.156;2022-07-18T04:55:47;2.38;;;0.80;;
16113;SDS011;8161;-33.910;151.156;2022-07-18T04:58:14;2.33;;;0.47;;
16113;SDS011;8161;-33.910;151.156;2022-07-18T05:00:42;1.52;;;0.47;;
16113;SDS011;8161;-33.910;151.156;2022-07-18T05:03:09;1.60;;;0.70;;
16113;SDS011;8161;-33.910;151.156;2022-07-18T05:05:36;0.95;;;0.57;;
16113;SDS011;8161;-33.910;151.156;2022-07-18T05:08:04;1.70;;;0.57;;
16113;SDS011;8161;-33.910;151.156;2022-07-18T05:10:32;2.90;;;0.77;;
16113;SDS011;8161;-33.910;151.156;2022-07-18T05:12:59;1.48;;;0.50;;
16113;SDS011;8161;-33.910;151.156;2022-07-18T05:15:27;4.85;;;1.40;;
16113;SDS011;8161;-33.910;151.156;2022-07-18T05:17:54;1.02;;;0.40;;
16113;SDS011;8161;-33.910;151.156;2022-07-18T05:20:22;0.90;;;0.32;;
16113;SDS011;8161;-33.910;151.156;2022-07-18T05:22:51;1.63;;;0.50;;
16113;SDS011;8161;-33.910;151.156;2022-07-18T05:25:19;1.38;;;0.50;;
16113;SDS011;8161;-33.910;151.156;2022-07-18T05:27:50;5.13;;;0.65;;
16113;SDS011;8161;-33.910;151.156;2022-07-18T05:30:18;1.05;;;0.30;;
16113;SDS011;8161;-33.910;151.156;2022-07-18T05:32:47;2.45;;;0.60;;
16113;SDS011;8161;-33.910;151.156;2022-07-18T05:35:15;3.30;;;0.45;;
16113;SDS011;8161;-33.910;151.156;2022-07-18T05:37:42;1.42;;;0.40;;
16113;SDS011;8161;-33.910;151.156;2022-07-18T05:40:10;1.13;;;0.50;;
16113;SDS011;8161;-33.910;151.156;2022-07-18T05:42:40;2.40;;;0.50;;
16113;SDS011;8161;-33.910;151.156;2022-07-18T05:45:08;3.28;;;0.30;;
16113;SDS011;8161;-33.910;151.156;2022-07-18T05:47:35;1.98;;;0.50;;
16113;SDS011;8161;-33.910;151.156;2022-07-18T05:50:03;1.33;;;0.40;;
16113;SDS011;8161;-33.910;151.156;2022-07-18T05:52:31;0.82;;;0.43;;
16113;SDS011;8161;-33.910;151.156;2022-07-18T05:54:59;7.22;;;0.55;;
16113;SDS011;8161;-33.910;151.156;2022-07-18T05:57:26;0.40;;;0.30;;
16113;SDS011;8161;-33.910;151.156;2022-07-18T05:59:54;1.90;;;1.48;;
16113;SDS011;8161;-33.910;151.156;2022-07-18T06:02:21;2.28;;;0.45;;
16113;SDS011;8161;-33.910;151.156;2022-07-18T06:04:48;2.28;;;0.70;;
16113;SDS011;8161;-33.910;151.156;2022-07-18T06:07:16;1.13;;;0.40;;
16113;SDS011;8161;-33.910;151.156;2022-07-18T06:09:43;2.58;;;0.32;;
16113;SDS011;8161;-33.910;151.156;2022-07-18T06:12:10;1.25;;;0.45;;
16113;SDS011;8161;-33.910;151.156;2022-07-18T06:14:38;3.35;;;0.75;;
16113;SDS011;8161;-33.910;151.156;2022-07-18T06:17:05;3.30;;;1.50;;
16113;SDS011;8161;-33.910;151.156;2022-07-18T06:19:32;2.45;;;0.55;;
16113;SDS011;8161;-33.910;151.156;2022-07-18T06:22:00;1.05;;;0.50;;
16113;SDS011;8161;-33.910;151.156;2022-07-18T06:24:27;0.63;;;0.50;;
16113;SDS011;8161;-33.910;151.156;2022-07-18T06:26:55;1.17;;;0.68;;
16113;SDS011;8161;-33.910;151.156;2022-07-18T06:29:22;1.13;;;0.50;;
16113;SDS011;8161;-33.910;151.156;2022-07-18T06:31:49;1.45;;;0.70;;
16113;SDS011;8161;-33.910;151.156;2022-07-18T06:34:16;1.15;;;0.50;;
16113;SDS011;8161;-33.910;151.156;2022-07-18T06:36:44;1.52;;;0.50;;
16113;SDS011;8161;-33.910;151.156;2022-07-18T06:39:11;2.13;;;0.70;;
16113;SDS011;8161;-33.910;151.156;2022-07-18T06:41:42;0.70;;;0.43;;
16113;SDS011;8161;-33.910;151.156;2022-07-18T06:44:09;1.67;;;0.52;;
16113;SDS011;8161;-33.910;151.156;2022-07-18T06:46:36;1.17;;;0.77;;
16113;SDS011;8161;-33.910;151.156;2022-07-18T06:49:03;2.20;;;0.40;;
16113;SDS011;8161;-33.910;151.156;2022-07-18T06:51:31;1.80;;;0.73;;
16113;SDS011;8161;-33.910;151.156;2022-07-18T06:53:58;2.90;;;0.77;;
16113;SDS011;8161;-33.910;151.156;2022-07-18T06:56:25;2.25;;;0.75;;
16113;SDS011;8161;-33.910;151.156;2022-07-18T06:58:53;5.55;;;0.70;;
16113;SDS011;8161;-33.910;151.156;2022-07-18T07:01:20;1.85;;;0.80;;
16113;SDS011;8161;-33.910;151.156;2022-07-18T07:03:49;4.03;;;1.17;;
16113;SDS011;8161;-33.910;151.156;2022-07-18T07:06:16;2.80;;;0.90;;
16113;SDS011;8161;-33.910;151.156;2022-07-18T07:08:43;2.10;;;0.95;;
16113;SDS011;8161;-33.910;151.156;2022-07-18T07:11:10;4.25;;;1.10;;
16113;SDS011;8161;-33.910;151.156;2022-07-18T07:13:38;6.20;;;0.73;;
16113;SDS011;8161;-33.910;151.156;2022-07-18T07:16:05;3.13;;;0.90;;
16113;SDS011;8161;-33.910;151.156;2022-07-18T07:18:32;4.32;;;1.20;;
16113;SDS011;8161;-33.910;151.156;2022-07-18T07:20:59;4.38;;;1.00;;
16113;SDS011;8161;-33.910;151.156;2022-07-18T07:23:27;4.32;;;1.67;;
16113;SDS011;8161;-33.910;151.156;2022-07-18T07:25:54;3.97;;;1.20;;
16113;SDS011;8161;-33.910;151.156;2022-07-18T07:28:22;3.30;;;1.13;;
16113;SDS011;8161;-33.910;151.156;2022-07-18T07:30:49;3.20;;;1.33;;
16113;SDS011;8161;-33.910;151.156;2022-07-18T07:33:16;6.07;;;1.60;;
16113;SDS011;8161;-33.910;151.156;2022-07-18T07:35:44;4.03;;;1.55;;
16113;SDS011;8161;-33.910;151.156;2022-07-18T07:38:11;8.43;;;1.60;;
16113;SDS011;8161;-33.910;151.156;2022-07-18T07:40:43;6.05;;;1.55;;
16113;SDS011;8161;-33.910;151.156;2022-07-18T07:43:14;4.53;;;1.98;;
16113;SDS011;8161;-33.910;151.156;2022-07-18T07:45:43;3.67;;;1.63;;
16113;SDS011;8161;-33.910;151.156;2022-07-18T07:48:14;3.50;;;1.40;;
16113;SDS011;8161;-33.910;151.156;2022-07-18T07:50:42;9.77;;;1.40;;
16113;SDS011;8161;-33.910;151.156;2022-07-18T07:53:10;4.93;;;1.90;;
16113;SDS011;8161;-33.910;151.156;2022-07-18T07:55:37;3.33;;;1.20;;
16113;SDS011;8161;-33.910;151.156;2022-07-18T07:58:05;3.13;;;1.40;;
16113;SDS011;8161;-33.910;151.156;2022-07-18T08:00:32;5.03;;;1.60;;
16113;SDS011;8161;-33.910;151.156;2022-07-18T08:03:01;3.67;;;1.50;;
16113;SDS011;8161;-33.910;151.156;2022-07-18T08:05:35;6.97;;;2.92;;
16113;SDS011;8161;-33.910;151.156;2022-07-18T08:08:04;5.38;;;2.38;;
16113;SDS011;8161;-33.910;151.156;2022-07-18T08:10:32;4.53;;;2.00;;
16113;SDS011;8161;-33.910;151.156;2022-07-18T08:12:59;3.08;;;1.75;;
16113;SDS011;8161;-33.910;151.156;2022-07-18T08:15:27;5.85;;;2.30;;
16113;SDS011;8161;-33.910;151.156;2022-07-18T08:17:55;7.00;;;2.75;;
16113;SDS011;8161;-33.910;151.156;2022-07-18T08:20:22;9.82;;;2.95;;
16113;SDS011;8161;-33.910;151.156;2022-07-18T08:22:54;3.72;;;1.90;;
16113;SDS011;8161;-33.910;151.156;2022-07-18T08:25:27;3.60;;;2.30;;
16113;SDS011;8161;-33.910;151.156;2022-07-18T08:27:58;4.70;;;1.85;;
16113;SDS011;8161;-33.910;151.156;2022-07-18T08:30:26;6.65;;;2.25;;
16113;SDS011;8161;-33.910;151.156;2022-07-18T08:32:54;6.75;;;2.72;;
16113;SDS011;8161;-33.910;151.156;2022-07-18T08:35:22;4.75;;;2.20;;
16113;SDS011;8161;-33.910;151.156;2022-07-18T08:37:49;6.38;;;2.50;;
16113;SDS011;8161;-33.910;151.156;2022-07-18T08:40:16;5.07;;;2.72;;
16113;SDS011;8161;-33.910;151.156;2022-07-18T08:42:44;6.38;;;3.25;;
16113;SDS011;8161;-33.910;151.156;2022-07-18T08:45:13;7.13;;;2.88;;
16113;SDS011;8161;-33.910;151.156;2022-07-18T08:47:40;5.82;;;2.92;;
16113;SDS011;8161;-33.910;151.156;2022-07-18T08:50:09;3.78;;;2.03;;
16113;SDS011;8161;-33.910;151.156;2022-07-18T08:52:37;4.38;;;1.92;;
16113;SDS011;8161;-33.910;151.156;2022-07-18T08:55:09;8.18;;;2.80;;
16113;SDS011;8161;-33.910;151.156;2022-07-18T08:57:37;8.52;;;2.45;;
16113;SDS011;8161;-33.910;151.156;2022-07-18T09:00:05;8.63;;;3.35;;
16113;SDS011;8161;-33.910;151.156;2022-07-18T09:02:34;7.50;;;3.08;;
16113;SDS011;8161;-33.910;151.156;2022-07-18T09:05:02;5.28;;;2.35;;
16113;SDS011;8161;-33.910;151.156;2022-07-18T09:07:31;6.35;;;2.00;;
16113;SDS011;8161;-33.910;151.156;2022-07-18T09:10:04;5.13;;;2.65;;
16113;SDS011;8161;-33.910;151.156;2022-07-18T09:12:33;6.60;;;2.25;;
16113;SDS011;8161;-33.910;151.156;2022-07-18T09:15:07;4.22;;;1.60;;
16113;SDS011;8161;-33.910;151.156;2022-07-18T09:17:41;6.13;;;1.63;;
16113;SDS011;8161;-33.910;151.156;2022-07-18T09:20:09;3.13;;;1.67;;
16113;SDS011;8161;-33.910;151.156;2022-07-18T09:22:42;5.43;;;2.30;;
16113;SDS011;8161;-33.910;151.156;2022-07-18T09:25:18;4.55;;;1.90;;
16113;SDS011;8161;-33.910;151.156;2022-07-18T09:27:51;4.32;;;1.95;;
16113;SDS011;8161;-33.910;151.156;2022-07-18T09:30:20;2.33;;;1.42;;
16113;SDS011;8161;-33.910;151.156;2022-07-18T09:32:55;3.10;;;1.67;;
16113;SDS011;8161;-33.910;151.156;2022-07-18T09:35:34;6.57;;;2.47;;
16113;SDS011;8161;-33.910;151.156;2022-07-18T09:38:07;4.88;;;2.05;;
16113;SDS011;8161;-33.910;151.156;2022-07-18T09:40:37;6.28;;;2.80;;
16113;SDS011;8161;-33.910;151.156;2022-07-18T09:43:15;3.70;;;1.50;;
16113;SDS011;8161;-33.910;151.156;2022-07-18T09:45:50;3.50;;;1.55;;
16113;SDS011;8161;-33.910;151.156;2022-07-18T09:48:23;6.95;;;1.67;;
16113;SDS011;8161;-33.910;151.156;2022-07-18T09:53:29;4.57;;;1.77;;
16113;SDS011;8161;-33.910;151.156;2022-07-18T09:56:04;5.78;;;2.20;;
16113;SDS011;8161;-33.910;151.156;2022-07-18T09:58:40;2.83;;;1.60;;
16113;SDS011;8161;-33.910;151.156;2022-07-18T10:01:16;3.22;;;1.38;;
16113;SDS011;8161;-33.910;151.156;2022-07-18T10:03:43;2.53;;;1.45;;
16113;SDS011;8161;-33.910;151.156;2022-07-18T10:06:11;4.82;;;1.45;;
16113;SDS011;8161;-33.910;151.156;2022-07-18T10:08:38;4.07;;;1.48;;
16113;SDS011;8161;-33.910;151.156;2022-07-18T10:11:06;2.55;;;1.30;;
16113;SDS011;8161;-33.910;151.156;2022-07-18T10:13:34;4.28;;;1.35;;
16113;SDS011;8161;-33.910;151.156;2022-07-18T10:16:04;3.25;;;1.55;;
16113;SDS011;8161;-33.910;151.156;2022-07-18T10:18:32;2.63;;;1.25;;
16113;SDS011;8161;-33.910;151.156;2022-07-18T10:23:33;3.28;;;1.40;;
16113;SDS011;8161;-33.910;151.156;2022-07-18T10:29:15;3.83;;;1.65;;
16113;SDS011;8161;-33.910;151.156;2022-07-18T10:31:37;4.20;;;1.90;;
16113;SDS011;8161;-33.910;151.156;2022-07-18T10:39:18;3.78;;;1.65;;
16113;SDS011;8161;-33.910;151.156;2022-07-18T10:44:35;3.00;;;1.35;;
16113;SDS011;8161;-33.910;151.156;2022-07-18T10:47:05;4.28;;;1.58;;
16113;SDS011;8161;-33.910;151.156;2022-07-18T10:50:05;2.95;;;1.23;;
16113;SDS011;8161;-33.910;151.156;2022-07-18T10:57:35;5.30;;;1.42;;
16113;SDS011;8161;-33.910;151.156;2022-07-18T11:00:10;4.57;;;1.88;;
16113;SDS011;8161;-33.910;151.156;2022-07-18T11:02:44;4.22;;;1.65;;
16113;SDS011;8161;-33.910;151.156;2022-07-18T11:16:01;2.47;;;1.48;;
16113;SDS011;8161;-33.910;151.156;2022-07-18T11:23:48;3.13;;;1.60;;
16113;SDS011;8161;-33.910;151.156;2022-07-18T11:26:18;1.55;;;1.10;;
16113;SDS011;8161;-33.910;151.156;2022-07-18T11:28:46;3.50;;;1.95;;
16113;SDS011;8161;-33.910;151.156;2022-07-18T11:31:15;5.78;;;1.27;;
16113;SDS011;8161;-33.910;151.156;2022-07-18T11:33:46;3.60;;;1.10;;
16113;SDS011;8161;-33.910;151.156;2022-07-18T11:36:15;5.97;;;1.52;;
16113;SDS011;8161;-33.910;151.156;2022-07-18T11:38:48;4.10;;;1.33;;
16113;SDS011;8161;-33.910;151.156;2022-07-18T11:41:17;3.50;;;1.02;;
16113;SDS011;8161;-33.910;151.156;2022-07-18T11:43:45;4.85;;;1.60;;
16113;SDS011;8161;-33.910;151.156;2022-07-18T11:46:18;2.63;;;1.95;;
16113;SDS011;8161;-33.910;151.156;2022-07-18T11:48:57;2.20;;;1.23;;
16113;SDS011;8161;-33.910;151.156;2022-07-18T11:51:32;4.03;;;1.33;;
16113;SDS011;8161;-33.910;151.156;2022-07-18T11:54:01;1.83;;;1.27;;
16113;SDS011;8161;-33.910;151.156;2022-07-18T11:56:29;5.25;;;1.52;;
16113;SDS011;8161;-33.910;151.156;2022-07-18T11:58:56;3.10;;;1.50;;
16113;SDS011;8161;-33.910;151.156;2022-07-18T12:01:33;5.40;;;1.60;;
16113;SDS011;8161;-33.910;151.156;2022-07-18T12:04:00;2.22;;;1.30;;
16113;SDS011;8161;-33.910;151.156;2022-07-18T12:06:28;5.05;;;1.60;;
16113;SDS011;8161;-33.910;151.156;2022-07-18T12:08:56;2.15;;;1.35;;
16113;SDS011;8161;-33.910;151.156;2022-07-18T12:11:34;2.17;;;1.08;;
16113;SDS011;8161;-33.910;151.156;2022-07-18T12:14:12;1.73;;;0.88;;
16113;SDS011;8161;-33.910;151.156;2022-07-18T12:16:42;4.53;;;1.75;;
16113;SDS011;8161;-33.910;151.156;2022-07-18T12:19:12;3.55;;;1.23;;
16113;SDS011;8161;-33.910;151.156;2022-07-18T12:21:53;2.20;;;1.38;;
16113;SDS011;8161;-33.910;151.156;2022-07-18T12:32:35;2.42;;;1.42;;
16113;SDS011;8161;-33.910;151.156;2022-07-18T12:35:11;3.30;;;1.38;;
16113;SDS011;8161;-33.910;151.156;2022-07-18T12:37:41;3.63;;;1.52;;
16113;SDS011;8161;-33.910;151.156;2022-07-18T12:40:17;4.20;;;1.60;;
16113;SDS011;8161;-33.910;151.156;2022-07-18T12:42:47;5.80;;;1.60;;
16113;SDS011;8161;-33.910;151.156;2022-07-18T12:45:14;4.95;;;1.35;;
16113;SDS011;8161;-33.910;151.156;2022-07-18T12:47:42;5.18;;;1.90;;
16113;SDS011;8161;-33.910;151.156;2022-07-18T12:50:09;4.40;;;1.55;;
16113;SDS011;8161;-33.910;151.156;2022-07-18T12:52:37;2.87;;;1.70;;
16113;SDS011;8161;-33.910;151.156;2022-07-18T12:55:04;4.88;;;2.05;;
16113;SDS011;8161;-33.910;151.156;2022-07-18T12:57:32;7.63;;;2.35;;
16113;SDS011;8161;-33.910;151.156;2022-07-18T12:59:59;2.60;;;1.60;;
16113;SDS011;8161;-33.910;151.156;2022-07-18T13:02:26;5.43;;;2.20;;
16113;SDS011;8161;-33.910;151.156;2022-07-18T13:04:53;5.68;;;1.88;;
16113;SDS011;8161;-33.910;151.156;2022-07-18T13:07:21;3.05;;;1.60;;
16113;SDS011;8161;-33.910;151.156;2022-07-18T13:09:48;5.20;;;1.57;;
16113;SDS011;8161;-33.910;151.156;2022-07-18T13:12:15;4.83;;;1.80;;
16113;SDS011;8161;-33.910;151.156;2022-07-18T13:14:42;2.57;;;1.40;;
16113;SDS011;8161;-33.910;151.156;2022-07-18T13:17:10;3.97;;;1.80;;
16113;SDS011;8161;-33.910;151.156;2022-07-18T13:19:37;5.00;;;1.70;;
16113;SDS011;8161;-33.910;151.156;2022-07-18T13:22:05;3.10;;;1.25;;
16113;SDS011;8161;-33.910;151.156;2022-07-18T13:24:32;2.28;;;1.30;;
16113;SDS011;8161;-33.910;151.156;2022-07-18T13:27:00;3.38;;;1.60;;
16113;SDS011;8161;-33.910;151.156;2022-07-18T13:29:27;4.32;;;1.80;;
16113;SDS011;8161;-33.910;151.156;2022-07-18T13:31:54;5.80;;;1.88;;
16113;SDS011;8161;-33.910;151.156;2022-07-18T13:34:22;5.03;;;3.17;;
16113;SDS011;8161;-33.910;151.156;2022-07-18T13:36:49;4.63;;;2.10;;
16113;SDS011;8161;-33.910;151.156;2022-07-18T13:39:18;6.68;;;1.92;;
16113;SDS011;8161;-33.910;151.156;2022-07-18T13:41:46;2.75;;;1.67;;
16113;SDS011;8161;-33.910;151.156;2022-07-18T13:44:16;3.45;;;1.13;;
16113;SDS011;8161;-33.910;151.156;2022-07-18T13:46:43;3.95;;;1.40;;
16113;SDS011;8161;-33.910;151.156;2022-07-18T13:49:10;2.88;;;1.10;;
16113;SDS011;8161;-33.910;151.156;2022-07-18T13:51:38;3.50;;;1.25;;
16113;SDS011;8161;-33.910;151.156;2022-07-18T13:54:06;2.57;;;1.20;;
16113;SDS011;8161;-33.910;151.156;2022-07-18T13:56:34;3.33;;;1.33;;
16113;SDS011;8161;-33.910;151.156;2022-07-18T13:59:01;3.58;;;1.20;;
16113;SDS011;8161;-33.910;151.156;2022-07-18T14:01:31;2.25;;;1.20;;
16113;SDS011;8161;-33.910;151.156;2022-07-18T14:03:58;3.67;;;1.42;;
16113;SDS011;8161;-33.910;151.156;2022-07-18T14:06:26;5.00;;;1.20;;
16113;SDS011;8161;-33.910;151.156;2022-07-18T14:08:53;3.07;;;0.90;;
16113;SDS011;8161;-33.910;151.156;2022-07-18T14:11:20;1.70;;;0.80;;
16113;SDS011;8161;-33.910;151.156;2022-07-18T14:13:48;2.53;;;0.80;;
16113;SDS011;8161;-33.910;151.156;2022-07-18T14:16:15;1.73;;;0.98;;
16113;SDS011;8161;-33.910;151.156;2022-07-18T14:18:42;3.90;;;1.05;;
16113;SDS011;8161;-33.910;151.156;2022-07-18T14:21:09;3.42;;;1.10;;
16113;SDS011;8161;-33.910;151.156;2022-07-18T14:23:38;2.72;;;1.00;;
16113;SDS011;8161;-33.910;151.156;2022-07-18T14:26:05;2.67;;;0.73;;
16113;SDS011;8161;-33.910;151.156;2022-07-18T14:28:32;2.63;;;0.80;;
16113;SDS011;8161;-33.910;151.156;2022-07-18T14:30:59;3.28;;;0.80;;
16113;SDS011;8161;-33.910;151.156;2022-07-18T14:33:26;7.80;;;1.30;;
16113;SDS011;8161;-33.910;151.156;2022-07-18T14:35:54;2.75;;;1.10;;
16113;SDS011;8161;-33.910;151.156;2022-07-18T14:38:21;4.35;;;1.17;;
16113;SDS011;8161;-33.910;151.156;2022-07-18T14:40:48;3.28;;;1.08;;
16113;SDS011;8161;-33.910;151.156;2022-07-18T14:43:15;4.13;;;1.40;;
16113;SDS011;8161;-33.910;151.156;2022-07-18T14:45:43;6.47;;;1.00;;
16113;SDS011;8161;-33.910;151.156;2022-07-18T14:48:10;3.55;;;0.80;;
16113;SDS011;8161;-33.910;151.156;2022-07-18T14:50:40;4.32;;;1.25;;
16113;SDS011;8161;-33.910;151.156;2022-07-18T14:53:07;3.47;;;0.88;;
16113;SDS011;8161;-33.910;151.156;2022-07-18T14:55:35;3.22;;;1.17;;
16113;SDS011;8161;-33.910;151.156;2022-07-18T14:58:02;4.22;;;0.90;;
16113;SDS011;8161;-33.910;151.156;2022-07-18T15:00:29;2.00;;;1.00;;
16113;SDS011;8161;-33.910;151.156;2022-07-18T15:02:56;2.85;;;0.77;;
16113;SDS011;8161;-33.910;151.156;2022-07-18T15:05:24;2.90;;;0.88;;
16113;SDS011;8161;-33.910;151.156;2022-07-18T15:07:51;3.05;;;0.75;;
16113;SDS011;8161;-33.910;151.156;2022-07-18T15:10:18;2.92;;;0.60;;
16113;SDS011;8161;-33.910;151.156;2022-07-18T15:12:46;2.70;;;0.70;;